sensor_id;sensor_type;location;lat;lon;timestamp;temperature;humidity
15355;DHT22;7777;52.254;9.618;2023-08-08T00:01:21;14.50;99.30
15355;DHT22;7777;52.254;9.618;2023-08-08T00:03:47;14.50;99.40
15355;DHT22;7777;52.254;9.618;2023-08-08T00:06:13;14.50;99.40
15355;DHT22;7777;52.254;9.618;2023-08-08T00:08:39;14.50;99.40
15355;DHT22;7777;52.254;9.618;2023-08-08T00:11:05;14.50;99.40
15355;DHT22;7777;52.254;9.618;2023-08-08T00:13:31;14.50;99.40
15355;DHT22;7777;52.254;9.618;2023-08-08T00:15:57;14.50;99.50
15355;DHT22;7777;52.254;9.618;2023-08-08T00:18:23;14.50;99.50
15355;DHT22;7777;52.254;9.618;2023-08-08T00:20:48;14.50;99.50
15355;DHT22;7777;52.254;9.618;2023-08-08T00:23:14;14.50;99.60
15355;DHT22;7777;52.254;9.618;2023-08-08T00:25:40;14.50;99.60
15355;DHT22;7777;52.254;9.618;2023-08-08T00:28:06;14.50;99.60
15355;DHT22;7777;52.254;9.618;2023-08-08T00:30:32;14.50;99.70
15355;DHT22;7777;52.254;9.618;2023-08-08T00:32:58;14.50;99.70
15355;DHT22;7777;52.254;9.618;2023-08-08T00:35:23;14.50;99.70
15355;DHT22;7777;52.254;9.618;2023-08-08T00:37:49;14.50;99.70
15355;DHT22;7777;52.254;9.618;2023-08-08T00:40:15;14.50;99.70
15355;DHT22;7777;52.254;9.618;2023-08-08T00:42:41;14.50;99.70
15355;DHT22;7777;52.254;9.618;2023-08-08T00:45:07;14.50;99.80
15355;DHT22;7777;52.254;9.618;2023-08-08T00:47:34;14.50;99.80
15355;DHT22;7777;52.254;9.618;2023-08-08T00:50:03;14.50;99.90
15355;DHT22;7777;52.254;9.618;2023-08-08T00:52:30;14.50;99.80
15355;DHT22;7777;52.254;9.618;2023-08-08T00:54:56;14.50;99.90
15355;DHT22;7777;52.254;9.618;2023-08-08T00:57:22;14.50;99.80
15355;DHT22;7777;52.254;9.618;2023-08-08T00:59:48;14.50;99.80
15355;DHT22;7777;52.254;9.618;2023-08-08T01:02:15;14.50;99.80
15355;DHT22;7777;52.254;9.618;2023-08-08T01:04:41;14.50;99.90
15355;DHT22;7777;52.254;9.618;2023-08-08T01:07:16;14.50;99.90
15355;DHT22;7777;52.254;9.618;2023-08-08T01:12:45;14.50;99.90
15355;DHT22;7777;52.254;9.618;2023-08-08T01:15:13;14.50;99.90
15355;DHT22;7777;52.254;9.618;2023-08-08T01:17:40;14.50;99.90
15355;DHT22;7777;52.254;9.618;2023-08-08T01:20:07;14.50;99.90
15355;DHT22;7777;52.254;9.618;2023-08-08T01:25:24;14.50;99.90
15355;DHT22;7777;52.254;9.618;2023-08-08T01:27:50;14.50;99.90
15355;DHT22;7777;52.254;9.618;2023-08-08T01:30:15;14.50;99.90
15355;DHT22;7777;52.254;9.618;2023-08-08T01:32:41;14.40;99.90
15355;DHT22;7777;52.254;9.618;2023-08-08T01:35:08;14.50;99.90
15355;DHT22;7777;52.254;9.618;2023-08-08T01:37:39;14.40;99.90
15355;DHT22;7777;52.254;9.618;2023-08-08T01:40:10;14.50;99.90
15355;DHT22;7777;52.254;9.618;2023-08-08T01:42:38;14.50;99.90
15355;DHT22;7777;52.254;9.618;2023-08-08T01:45:09;14.50;99.90
15355;DHT22;7777;52.254;9.618;2023-08-08T01:47:35;14.40;99.90
15355;DHT22;7777;52.254;9.618;2023-08-08T01:50:01;14.50;99.90
15355;DHT22;7777;52.254;9.618;2023-08-08T01:52:27;14.40;99.90
15355;DHT22;7777;52.254;9.618;2023-08-08T01:54:53;14.50;99.90
15355;DHT22;7777;52.254;9.618;2023-08-08T01:57:18;14.50;99.90
15355;DHT22;7777;52.254;9.618;2023-08-08T01:59:47;14.50;99.90
15355;DHT22;7777;52.254;9.618;2023-08-08T02:02:13;14.50;99.90
15355;DHT22;7777;52.254;9.618;2023-08-08T02:04:40;14.50;99.90
15355;DHT22;7777;52.254;9.618;2023-08-08T02:07:06;14.50;99.90
15355;DHT22;7777;52.254;9.618;2023-08-08T02:09:31;14.50;99.90
15355;DHT22;7777;52.254;9.618;2023-08-08T02:11:57;14.50;99.90
15355;DHT22;7777;52.254;9.618;2023-08-08T02:14:23;14.50;99.90
15355;DHT22;7777;52.254;9.618;2023-08-08T02:16:49;14.50;99.90
15355;DHT22;7777;52.254;9.618;2023-08-08T02:19:14;14.50;99.90
15355;DHT22;7777;52.254;9.618;2023-08-08T02:21:40;14.50;99.90
15355;DHT22;7777;52.254;9.618;2023-08-08T02:24:06;14.50;99.90
15355;DHT22;7777;52.254;9.618;2023-08-08T02:26:32;14.50;99.90
15355;DHT22;7777;52.254;9.618;2023-08-08T02:28:58;14.50;99.90
15355;DHT22;7777;52.254;9.618;2023-08-08T02:31:23;14.50;99.90
15355;DHT22;7777;52.254;9.618;2023-08-08T02:33:50;14.50;99.90
15355;DHT22;7777;52.254;9.618;2023-08-08T02:36:17;14.60;99.90
15355;DHT22;7777;52.254;9.618;2023-08-08T02:38:43;14.50;99.90
15355;DHT22;7777;52.254;9.618;2023-08-08T02:41:09;14.60;99.90
15355;DHT22;7777;52.254;9.618;2023-08-08T02:43:35;14.60;99.90
15355;DHT22;7777;52.254;9.618;2023-08-08T02:46:01;14.60;99.90
15355;DHT22;7777;52.254;9.618;2023-08-08T02:48:28;14.60;99.90
15355;DHT22;7777;52.254;9.618;2023-08-08T02:50:55;14.60;99.90
15355;DHT22;7777;52.254;9.618;2023-08-08T02:53:20;14.60;99.90
15355;DHT22;7777;52.254;9.618;2023-08-08T02:55:47;14.60;99.90
15355;DHT22;7777;52.254;9.618;2023-08-08T02:58:12;14.60;99.90
15355;DHT22;7777;52.254;9.618;2023-08-08T03:00:38;14.60;99.90
15355;DHT22;7777;52.254;9.618;2023-08-08T03:03:04;14.70;99.90
15355;DHT22;7777;52.254;9.618;2023-08-08T03:05:30;14.60;99.90
15355;DHT22;7777;52.254;9.618;2023-08-08T03:07:56;14.60;99.90
15355;DHT22;7777;52.254;9.618;2023-08-08T03:10:21;14.60;99.90
15355;DHT22;7777;52.254;9.618;2023-08-08T03:12:47;14.70;99.90
15355;DHT22;7777;52.254;9.618;2023-08-08T03:15:13;14.60;99.90
15355;DHT22;7777;52.254;9.618;2023-08-08T03:17:39;14.70;99.90
15355;DHT22;7777;52.254;9.618;2023-08-08T03:20:05;14.70;99.90
15355;DHT22;7777;52.254;9.618;2023-08-08T03:22:32;14.70;99.90
15355;DHT22;7777;52.254;9.618;2023-08-08T03:24:58;14.70;99.90
15355;DHT22;7777;52.254;9.618;2023-08-08T03:27:24;14.70;99.90
15355;DHT22;7777;52.254;9.618;2023-08-08T03:29:50;14.70;99.90
15355;DHT22;7777;52.254;9.618;2023-08-08T03:32:16;14.70;99.90
15355;DHT22;7777;52.254;9.618;2023-08-08T03:34:42;14.70;99.90
15355;DHT22;7777;52.254;9.618;2023-08-08T03:37:08;14.70;99.90
15355;DHT22;7777;52.254;9.618;2023-08-08T03:39:33;14.70;99.90
15355;DHT22;7777;52.254;9.618;2023-08-08T03:41:59;14.70;99.90
15355;DHT22;7777;52.254;9.618;2023-08-08T03:44:25;14.70;99.90
15355;DHT22;7777;52.254;9.618;2023-08-08T03:46:50;14.70;99.90
15355;DHT22;7777;52.254;9.618;2023-08-08T03:49:16;14.80;99.90
15355;DHT22;7777;52.254;9.618;2023-08-08T03:51:42;14.70;99.90
15355;DHT22;7777;52.254;9.618;2023-08-08T03:54:08;14.80;99.90
15355;DHT22;7777;52.254;9.618;2023-08-08T03:56:34;14.80;99.90
15355;DHT22;7777;52.254;9.618;2023-08-08T03:58:59;14.80;99.90
15355;DHT22;7777;52.254;9.618;2023-08-08T04:01:25;14.80;99.90
15355;DHT22;7777;52.254;9.618;2023-08-08T04:03:51;14.80;99.90
15355;DHT22;7777;52.254;9.618;2023-08-08T04:06:16;14.70;99.90
15355;DHT22;7777;52.254;9.618;2023-08-08T04:08:42;14.80;99.90
15355;DHT22;7777;52.254;9.618;2023-08-08T04:11:08;14.80;99.90
15355;DHT22;7777;52.254;9.618;2023-08-08T04:13:33;14.70;99.90
15355;DHT22;7777;52.254;9.618;2023-08-08T04:16:00;14.80;99.90
15355;DHT22;7777;52.254;9.618;2023-08-08T04:18:26;14.70;99.90
15355;DHT22;7777;52.254;9.618;2023-08-08T04:20:52;14.80;99.90
15355;DHT22;7777;52.254;9.618;2023-08-08T04:23:18;14.80;99.90
15355;DHT22;7777;52.254;9.618;2023-08-08T04:25:44;14.80;99.90
15355;DHT22;7777;52.254;9.618;2023-08-08T04:28:10;14.80;99.90
15355;DHT22;7777;52.254;9.618;2023-08-08T04:30:35;14.80;99.90
15355;DHT22;7777;52.254;9.618;2023-08-08T04:33:01;14.80;99.90
15355;DHT22;7777;52.254;9.618;2023-08-08T04:35:27;14.80;99.90
15355;DHT22;7777;52.254;9.618;2023-08-08T04:37:53;14.80;99.90
15355;DHT22;7777;52.254;9.618;2023-08-08T04:40:18;14.80;99.90
15355;DHT22;7777;52.254;9.618;2023-08-08T04:42:44;14.80;99.90
15355;DHT22;7777;52.254;9.618;2023-08-08T04:45:10;14.80;99.90
15355;DHT22;7777;52.254;9.618;2023-08-08T04:47:36;14.80;99.90
15355;DHT22;7777;52.254;9.618;2023-08-08T04:50:01;14.80;99.90
15355;DHT22;7777;52.254;9.618;2023-08-08T04:52:27;14.80;99.90
15355;DHT22;7777;52.254;9.618;2023-08-08T04:54:53;14.80;99.90
15355;DHT22;7777;52.254;9.618;2023-08-08T04:57:18;14.80;99.90
15355;DHT22;7777;52.254;9.618;2023-08-08T04:59:44;14.80;99.90
15355;DHT22;7777;52.254;9.618;2023-08-08T05:02:10;14.80;99.90
15355;DHT22;7777;52.254;9.618;2023-08-08T05:04:36;14.80;99.90
15355;DHT22;7777;52.254;9.618;2023-08-08T05:07:01;14.80;99.90
15355;DHT22;7777;52.254;9.618;2023-08-08T05:09:27;14.80;99.90
15355;DHT22;7777;52.254;9.618;2023-08-08T05:11:53;14.80;99.90
15355;DHT22;7777;52.254;9.618;2023-08-08T05:14:19;14.90;99.90
15355;DHT22;7777;52.254;9.618;2023-08-08T05:16:45;14.90;99.90
15355;DHT22;7777;52.254;9.618;2023-08-08T05:19:11;14.90;99.90
15355;DHT22;7777;52.254;9.618;2023-08-08T05:21:37;14.90;99.90
15355;DHT22;7777;52.254;9.618;2023-08-08T05:24:03;14.90;99.90
15355;DHT22;7777;52.254;9.618;2023-08-08T05:26:29;14.90;99.90
15355;DHT22;7777;52.254;9.618;2023-08-08T05:28:55;14.90;99.90
15355;DHT22;7777;52.254;9.618;2023-08-08T05:31:21;14.90;99.90
15355;DHT22;7777;52.254;9.618;2023-08-08T05:33:48;14.90;99.90
15355;DHT22;7777;52.254;9.618;2023-08-08T05:36:14;14.90;99.90
15355;DHT22;7777;52.254;9.618;2023-08-08T05:38:40;14.90;99.90
15355;DHT22;7777;52.254;9.618;2023-08-08T05:41:07;15.00;99.90
15355;DHT22;7777;52.254;9.618;2023-08-08T05:43:33;15.00;99.90
15355;DHT22;7777;52.254;9.618;2023-08-08T05:45:59;15.00;99.90
15355;DHT22;7777;52.254;9.618;2023-08-08T05:48:25;15.00;99.90
15355;DHT22;7777;52.254;9.618;2023-08-08T05:50:50;15.00;99.90
15355;DHT22;7777;52.254;9.618;2023-08-08T05:53:16;15.00;99.90
15355;DHT22;7777;52.254;9.618;2023-08-08T05:55:42;15.00;99.90
15355;DHT22;7777;52.254;9.618;2023-08-08T05:58:08;15.00;99.90
15355;DHT22;7777;52.254;9.618;2023-08-08T06:00:34;15.00;99.90
15355;DHT22;7777;52.254;9.618;2023-08-08T06:03:00;15.10;99.90
15355;DHT22;7777;52.254;9.618;2023-08-08T06:05:26;15.10;99.90
15355;DHT22;7777;52.254;9.618;2023-08-08T06:07:52;15.10;99.90
15355;DHT22;7777;52.254;9.618;2023-08-08T06:10:22;15.10;99.90
15355;DHT22;7777;52.254;9.618;2023-08-08T06:12:48;15.10;99.90
15355;DHT22;7777;52.254;9.618;2023-08-08T06:15:13;15.10;99.90
15355;DHT22;7777;52.254;9.618;2023-08-08T06:17:39;15.20;99.90
15355;DHT22;7777;52.254;9.618;2023-08-08T06:20:05;15.20;99.90
15355;DHT22;7777;52.254;9.618;2023-08-08T06:22:35;15.20;99.90
15355;DHT22;7777;52.254;9.618;2023-08-08T06:25:01;15.20;99.90
15355;DHT22;7777;52.254;9.618;2023-08-08T06:27:26;15.20;99.90
15355;DHT22;7777;52.254;9.618;2023-08-08T06:29:52;15.20;99.90
15355;DHT22;7777;52.254;9.618;2023-08-08T06:32:18;15.20;99.90
15355;DHT22;7777;52.254;9.618;2023-08-08T06:34:43;15.20;99.90
15355;DHT22;7777;52.254;9.618;2023-08-08T06:37:09;15.30;99.90
15355;DHT22;7777;52.254;9.618;2023-08-08T06:39:35;15.30;99.90
15355;DHT22;7777;52.254;9.618;2023-08-08T06:42:03;15.30;99.90
15355;DHT22;7777;52.254;9.618;2023-08-08T06:44:32;15.40;99.90
15355;DHT22;7777;52.254;9.618;2023-08-08T06:46:58;15.50;99.90
15355;DHT22;7777;52.254;9.618;2023-08-08T06:49:24;15.50;99.90
15355;DHT22;7777;52.254;9.618;2023-08-08T06:51:50;15.60;99.90
15355;DHT22;7777;52.254;9.618;2023-08-08T06:54:16;15.60;99.90
15355;DHT22;7777;52.254;9.618;2023-08-08T06:56:41;15.70;99.90
15355;DHT22;7777;52.254;9.618;2023-08-08T06:59:07;15.80;99.90
15355;DHT22;7777;52.254;9.618;2023-08-08T07:01:33;15.80;99.90
15355;DHT22;7777;52.254;9.618;2023-08-08T07:03:59;15.90;99.90
15355;DHT22;7777;52.254;9.618;2023-08-08T07:06:25;16.00;99.90
15355;DHT22;7777;52.254;9.618;2023-08-08T07:08:51;16.00;99.90
15355;DHT22;7777;52.254;9.618;2023-08-08T07:11:16;16.10;99.90
15355;DHT22;7777;52.254;9.618;2023-08-08T07:13:42;16.10;99.90
15355;DHT22;7777;52.254;9.618;2023-08-08T07:16:08;16.20;99.90
15355;DHT22;7777;52.254;9.618;2023-08-08T07:18:34;16.20;99.90
15355;DHT22;7777;52.254;9.618;2023-08-08T07:21:00;16.30;99.90
15355;DHT22;7777;52.254;9.618;2023-08-08T07:23:25;16.30;99.90
15355;DHT22;7777;52.254;9.618;2023-08-08T07:25:51;16.40;99.90
15355;DHT22;7777;52.254;9.618;2023-08-08T07:28:17;16.40;99.90
15355;DHT22;7777;52.254;9.618;2023-08-08T07:30:43;16.50;99.90
15355;DHT22;7777;52.254;9.618;2023-08-08T07:33:08;16.50;99.90
15355;DHT22;7777;52.254;9.618;2023-08-08T07:35:34;16.60;99.90
15355;DHT22;7777;52.254;9.618;2023-08-08T07:38:00;16.50;99.90
15355;DHT22;7777;52.254;9.618;2023-08-08T07:40:26;16.60;99.90
15355;DHT22;7777;52.254;9.618;2023-08-08T07:42:52;16.60;99.90
15355;DHT22;7777;52.254;9.618;2023-08-08T07:45:18;16.70;99.90
15355;DHT22;7777;52.254;9.618;2023-08-08T07:47:44;16.80;99.90
15355;DHT22;7777;52.254;9.618;2023-08-08T07:50:10;16.80;99.90
15355;DHT22;7777;52.254;9.618;2023-08-08T07:52:36;16.80;99.90
15355;DHT22;7777;52.254;9.618;2023-08-08T07:55:03;16.90;99.90
15355;DHT22;7777;52.254;9.618;2023-08-08T07:57:30;16.90;99.90
15355;DHT22;7777;52.254;9.618;2023-08-08T07:59:59;16.90;99.90
15355;DHT22;7777;52.254;9.618;2023-08-08T08:02:24;16.90;99.90
15355;DHT22;7777;52.254;9.618;2023-08-08T08:04:50;17.00;99.90
15355;DHT22;7777;52.254;9.618;2023-08-08T08:07:16;17.00;99.90
15355;DHT22;7777;52.254;9.618;2023-08-08T08:09:41;17.00;99.90
15355;DHT22;7777;52.254;9.618;2023-08-08T08:12:08;17.10;99.90
15355;DHT22;7777;52.254;9.618;2023-08-08T08:14:34;17.10;99.90
15355;DHT22;7777;52.254;9.618;2023-08-08T08:17:00;17.10;99.90
15355;DHT22;7777;52.254;9.618;2023-08-08T08:19:25;17.20;99.90
15355;DHT22;7777;52.254;9.618;2023-08-08T08:21:51;17.20;99.90
15355;DHT22;7777;52.254;9.618;2023-08-08T08:24:17;17.20;99.90
15355;DHT22;7777;52.254;9.618;2023-08-08T08:26:46;17.20;99.90
15355;DHT22;7777;52.254;9.618;2023-08-08T08:29:11;17.30;99.90
15355;DHT22;7777;52.254;9.618;2023-08-08T08:31:37;17.20;99.90
15355;DHT22;7777;52.254;9.618;2023-08-08T08:34:03;17.20;99.90
15355;DHT22;7777;52.254;9.618;2023-08-08T08:36:31;17.20;99.90
15355;DHT22;7777;52.254;9.618;2023-08-08T08:38:56;17.20;99.90
15355;DHT22;7777;52.254;9.618;2023-08-08T08:41:26;17.20;99.90
15355;DHT22;7777;52.254;9.618;2023-08-08T08:43:54;17.10;99.90
15355;DHT22;7777;52.254;9.618;2023-08-08T08:46:21;17.20;99.90
15355;DHT22;7777;52.254;9.618;2023-08-08T08:48:51;17.10;99.90
15355;DHT22;7777;52.254;9.618;2023-08-08T08:51:21;17.10;99.90
15355;DHT22;7777;52.254;9.618;2023-08-08T08:53:47;17.10;99.90
15355;DHT22;7777;52.254;9.618;2023-08-08T08:56:16;17.00;99.90
15355;DHT22;7777;52.254;9.618;2023-08-08T08:58:43;17.00;99.90
15355;DHT22;7777;52.254;9.618;2023-08-08T09:01:09;17.00;99.90
15355;DHT22;7777;52.254;9.618;2023-08-08T09:03:39;16.90;99.90
15355;DHT22;7777;52.254;9.618;2023-08-08T09:06:09;16.90;99.90
15355;DHT22;7777;52.254;9.618;2023-08-08T09:18:16;16.80;99.90
15355;DHT22;7777;52.254;9.618;2023-08-08T09:20:50;16.80;99.90
15355;DHT22;7777;52.254;9.618;2023-08-08T09:23:16;16.80;99.90
15355;DHT22;7777;52.254;9.618;2023-08-08T09:25:42;16.80;99.90
15355;DHT22;7777;52.254;9.618;2023-08-08T09:28:08;16.80;99.90
15355;DHT22;7777;52.254;9.618;2023-08-08T09:30:35;16.80;99.90
15355;DHT22;7777;52.254;9.618;2023-08-08T09:33:03;16.80;99.90
15355;DHT22;7777;52.254;9.618;2023-08-08T09:35:29;16.80;99.90
15355;DHT22;7777;52.254;9.618;2023-08-08T09:37:56;16.80;99.90
15355;DHT22;7777;52.254;9.618;2023-08-08T09:40:22;16.80;99.90
15355;DHT22;7777;52.254;9.618;2023-08-08T09:42:51;16.80;99.90
15355;DHT22;7777;52.254;9.618;2023-08-08T09:45:20;16.80;99.90
15355;DHT22;7777;52.254;9.618;2023-08-08T09:47:52;16.80;99.90
15355;DHT22;7777;52.254;9.618;2023-08-08T09:50:19;16.80;99.90
15355;DHT22;7777;52.254;9.618;2023-08-08T09:52:49;16.90;99.90
15355;DHT22;7777;52.254;9.618;2023-08-08T09:55:15;17.00;99.90
15355;DHT22;7777;52.254;9.618;2023-08-08T09:57:42;17.00;99.90
15355;DHT22;7777;52.254;9.618;2023-08-08T10:00:08;17.10;99.90
15355;DHT22;7777;52.254;9.618;2023-08-08T10:02:45;17.20;99.90
15355;DHT22;7777;52.254;9.618;2023-08-08T10:05:12;17.30;99.90
15355;DHT22;7777;52.254;9.618;2023-08-08T10:07:42;17.40;99.90
15355;DHT22;7777;52.254;9.618;2023-08-08T10:10:10;17.50;99.90
15355;DHT22;7777;52.254;9.618;2023-08-08T10:12:41;17.60;99.90
15355;DHT22;7777;52.254;9.618;2023-08-08T10:15:08;17.70;99.90
15355;DHT22;7777;52.254;9.618;2023-08-08T10:17:39;17.80;99.90
15355;DHT22;7777;52.254;9.618;2023-08-08T10:20:08;17.90;99.90
15355;DHT22;7777;52.254;9.618;2023-08-08T10:22:41;18.00;99.90
15355;DHT22;7777;52.254;9.618;2023-08-08T10:25:08;18.10;99.90
15355;DHT22;7777;52.254;9.618;2023-08-08T10:27:36;18.10;99.90
15355;DHT22;7777;52.254;9.618;2023-08-08T10:30:07;18.20;99.90
15355;DHT22;7777;52.254;9.618;2023-08-08T10:32:45;18.20;99.90
15355;DHT22;7777;52.254;9.618;2023-08-08T10:35:14;18.30;99.90
15355;DHT22;7777;52.254;9.618;2023-08-08T10:37:40;18.40;99.90
15355;DHT22;7777;52.254;9.618;2023-08-08T10:40:07;18.40;99.90
15355;DHT22;7777;52.254;9.618;2023-08-08T10:42:42;18.50;99.90
15355;DHT22;7777;52.254;9.618;2023-08-08T10:45:11;18.60;99.90
15355;DHT22;7777;52.254;9.618;2023-08-08T10:47:40;18.70;99.90
15355;DHT22;7777;52.254;9.618;2023-08-08T10:50:11;18.80;99.90
15355;DHT22;7777;52.254;9.618;2023-08-08T10:52:51;18.80;99.90
15355;DHT22;7777;52.254;9.618;2023-08-08T10:58:12;18.90;99.90
15355;DHT22;7777;52.254;9.618;2023-08-08T11:00:41;18.80;99.90
15355;DHT22;7777;52.254;9.618;2023-08-08T11:03:07;18.80;99.90
15355;DHT22;7777;52.254;9.618;2023-08-08T11:05:35;18.70;99.90
15355;DHT22;7777;52.254;9.618;2023-08-08T11:08:04;18.60;99.90
15355;DHT22;7777;52.254;9.618;2023-08-08T11:10:38;18.70;99.90
15355;DHT22;7777;52.254;9.618;2023-08-08T11:13:06;18.70;99.90
15355;DHT22;7777;52.254;9.618;2023-08-08T11:15:34;18.80;99.90
15355;DHT22;7777;52.254;9.618;2023-08-08T11:18:03;18.90;99.90
15355;DHT22;7777;52.254;9.618;2023-08-08T11:20:31;19.00;99.90
15355;DHT22;7777;52.254;9.618;2023-08-08T11:22:58;19.00;99.90
15355;DHT22;7777;52.254;9.618;2023-08-08T11:25:29;19.10;99.90
15355;DHT22;7777;52.254;9.618;2023-08-08T11:27:56;19.20;99.90
15355;DHT22;7777;52.254;9.618;2023-08-08T11:30:24;19.30;99.90
15355;DHT22;7777;52.254;9.618;2023-08-08T11:32:53;19.40;99.90
15355;DHT22;7777;52.254;9.618;2023-08-08T11:35:24;19.40;99.90
15355;DHT22;7777;52.254;9.618;2023-08-08T11:37:51;19.50;99.90
15355;DHT22;7777;52.254;9.618;2023-08-08T11:40:19;19.70;99.90
15355;DHT22;7777;52.254;9.618;2023-08-08T11:42:47;19.80;99.90
15355;DHT22;7777;52.254;9.618;2023-08-08T11:45:15;19.90;99.90
15355;DHT22;7777;52.254;9.618;2023-08-08T11:47:42;20.00;99.90
15355;DHT22;7777;52.254;9.618;2023-08-08T11:50:09;20.20;99.90
15355;DHT22;7777;52.254;9.618;2023-08-08T11:52:41;20.20;99.90
15355;DHT22;7777;52.254;9.618;2023-08-08T11:55:12;20.30;99.90
15355;DHT22;7777;52.254;9.618;2023-08-08T11:57:40;20.30;99.90
15355;DHT22;7777;52.254;9.618;2023-08-08T12:00:10;20.30;99.90
15355;DHT22;7777;52.254;9.618;2023-08-08T12:02:41;20.50;99.90
15355;DHT22;7777;52.254;9.618;2023-08-08T12:05:12;20.40;99.90
15355;DHT22;7777;52.254;9.618;2023-08-08T12:07:42;20.40;99.90
15355;DHT22;7777;52.254;9.618;2023-08-08T12:10:19;20.40;98.60
15355;DHT22;7777;52.254;9.618;2023-08-08T12:12:47;20.30;98.50
15355;DHT22;7777;52.254;9.618;2023-08-08T12:15:22;20.30;98.50
15355;DHT22;7777;52.254;9.618;2023-08-08T12:17:48;20.20;99.20
15355;DHT22;7777;52.254;9.618;2023-08-08T12:20:15;20.20;99.00
15355;DHT22;7777;52.254;9.618;2023-08-08T12:22:41;20.20;99.80
15355;DHT22;7777;52.254;9.618;2023-08-08T12:25:07;20.20;99.30
15355;DHT22;7777;52.254;9.618;2023-08-08T12:27:33;20.10;99.10
15355;DHT22;7777;52.254;9.618;2023-08-08T12:29:59;20.10;99.40
15355;DHT22;7777;52.254;9.618;2023-08-08T12:32:27;20.10;99.30
15355;DHT22;7777;52.254;9.618;2023-08-08T12:34:54;20.10;99.50
15355;DHT22;7777;52.254;9.618;2023-08-08T12:37:22;20.00;98.60
15355;DHT22;7777;52.254;9.618;2023-08-08T12:39:49;20.00;99.10
15355;DHT22;7777;52.254;9.618;2023-08-08T12:42:15;19.90;99.30
15355;DHT22;7777;52.254;9.618;2023-08-08T12:44:42;19.90;99.20
15355;DHT22;7777;52.254;9.618;2023-08-08T12:47:08;19.90;98.60
15355;DHT22;7777;52.254;9.618;2023-08-08T12:49:34;20.00;99.20
15355;DHT22;7777;52.254;9.618;2023-08-08T12:52:00;20.00;98.80
15355;DHT22;7777;52.254;9.618;2023-08-08T12:54:25;20.10;99.20
15355;DHT22;7777;52.254;9.618;2023-08-08T12:56:51;20.10;98.60
15355;DHT22;7777;52.254;9.618;2023-08-08T12:59:17;20.20;99.10
15355;DHT22;7777;52.254;9.618;2023-08-08T13:01:45;20.20;99.30
15355;DHT22;7777;52.254;9.618;2023-08-08T13:04:11;20.20;98.90
15355;DHT22;7777;52.254;9.618;2023-08-08T13:06:36;20.10;99.00
15355;DHT22;7777;52.254;9.618;2023-08-08T13:09:02;20.00;99.20
15355;DHT22;7777;52.254;9.618;2023-08-08T13:11:28;19.90;99.20
15355;DHT22;7777;52.254;9.618;2023-08-08T13:13:54;19.90;99.40
15355;DHT22;7777;52.254;9.618;2023-08-08T13:16:20;19.80;99.30
15355;DHT22;7777;52.254;9.618;2023-08-08T13:18:45;19.70;99.40
15355;DHT22;7777;52.254;9.618;2023-08-08T13:21:11;19.70;99.40
15355;DHT22;7777;52.254;9.618;2023-08-08T13:23:38;19.70;99.40
15355;DHT22;7777;52.254;9.618;2023-08-08T13:26:03;19.60;99.60
15355;DHT22;7777;52.254;9.618;2023-08-08T13:28:29;19.70;99.50
15355;DHT22;7777;52.254;9.618;2023-08-08T13:30:55;19.70;99.70
15355;DHT22;7777;52.254;9.618;2023-08-08T13:33:21;19.70;99.70
15355;DHT22;7777;52.254;9.618;2023-08-08T13:35:47;19.70;99.40
15355;DHT22;7777;52.254;9.618;2023-08-08T13:38:13;19.70;99.60
15355;DHT22;7777;52.254;9.618;2023-08-08T13:40:43;19.80;99.90
15355;DHT22;7777;52.254;9.618;2023-08-08T13:43:09;19.80;99.30
15355;DHT22;7777;52.254;9.618;2023-08-08T13:45:35;19.90;99.50
15355;DHT22;7777;52.254;9.618;2023-08-08T13:48:01;20.00;99.90
15355;DHT22;7777;52.254;9.618;2023-08-08T13:50:27;20.10;99.80
15355;DHT22;7777;52.254;9.618;2023-08-08T13:52:54;20.30;99.70
15355;DHT22;7777;52.254;9.618;2023-08-08T13:55:20;20.30;98.80
15355;DHT22;7777;52.254;9.618;2023-08-08T13:57:45;20.30;98.90
15355;DHT22;7777;52.254;9.618;2023-08-08T14:00:12;20.40;98.80
15355;DHT22;7777;52.254;9.618;2023-08-08T14:02:38;20.30;98.70
15355;DHT22;7777;52.254;9.618;2023-08-08T14:05:05;20.30;99.00
15355;DHT22;7777;52.254;9.618;2023-08-08T14:07:33;20.30;98.80
15355;DHT22;7777;52.254;9.618;2023-08-08T14:09:59;20.30;98.00
15355;DHT22;7777;52.254;9.618;2023-08-08T14:12:25;20.20;98.20
15355;DHT22;7777;52.254;9.618;2023-08-08T14:14:50;20.20;98.40
15355;DHT22;7777;52.254;9.618;2023-08-08T14:17:16;20.20;98.70
15355;DHT22;7777;52.254;9.618;2023-08-08T14:19:42;20.10;98.80
15355;DHT22;7777;52.254;9.618;2023-08-08T14:22:07;20.10;98.90
15355;DHT22;7777;52.254;9.618;2023-08-08T14:24:33;20.10;97.80
15355;DHT22;7777;52.254;9.618;2023-08-08T14:26:59;20.10;98.30
15355;DHT22;7777;52.254;9.618;2023-08-08T14:29:24;20.10;97.70
15355;DHT22;7777;52.254;9.618;2023-08-08T14:31:50;20.00;97.40
15355;DHT22;7777;52.254;9.618;2023-08-08T14:34:16;20.00;97.50
15355;DHT22;7777;52.254;9.618;2023-08-08T14:36:41;20.00;97.90
15355;DHT22;7777;52.254;9.618;2023-08-08T14:39:08;20.10;97.90
15355;DHT22;7777;52.254;9.618;2023-08-08T14:41:33;20.10;97.70
15355;DHT22;7777;52.254;9.618;2023-08-08T14:43:59;20.10;97.90
15355;DHT22;7777;52.254;9.618;2023-08-08T14:46:25;20.10;97.90
15355;DHT22;7777;52.254;9.618;2023-08-08T14:48:51;20.00;97.50
15355;DHT22;7777;52.254;9.618;2023-08-08T14:51:16;20.10;97.80
15355;DHT22;7777;52.254;9.618;2023-08-08T14:53:44;20.10;98.20
15355;DHT22;7777;52.254;9.618;2023-08-08T14:56:10;20.10;98.30
15355;DHT22;7777;52.254;9.618;2023-08-08T14:58:36;20.20;98.10
15355;DHT22;7777;52.254;9.618;2023-08-08T15:01:01;20.20;97.80
15355;DHT22;7777;52.254;9.618;2023-08-08T15:03:27;20.10;97.70
15355;DHT22;7777;52.254;9.618;2023-08-08T15:05:53;20.10;98.30
15355;DHT22;7777;52.254;9.618;2023-08-08T15:08:19;20.10;98.40
15355;DHT22;7777;52.254;9.618;2023-08-08T15:10:47;20.00;98.30
15355;DHT22;7777;52.254;9.618;2023-08-08T15:13:12;19.90;98.30
15355;DHT22;7777;52.254;9.618;2023-08-08T15:15:38;19.80;98.10
15355;DHT22;7777;52.254;9.618;2023-08-08T15:18:04;19.60;98.10
15355;DHT22;7777;52.254;9.618;2023-08-08T15:20:30;19.60;98.20
15355;DHT22;7777;52.254;9.618;2023-08-08T15:22:56;19.40;98.20
15355;DHT22;7777;52.254;9.618;2023-08-08T15:25:21;19.30;98.10
15355;DHT22;7777;52.254;9.618;2023-08-08T15:27:47;19.10;98.20
15355;DHT22;7777;52.254;9.618;2023-08-08T15:30:13;19.00;98.20
15355;DHT22;7777;52.254;9.618;2023-08-08T15:32:39;18.90;98.30
15355;DHT22;7777;52.254;9.618;2023-08-08T15:35:05;18.80;98.40
15355;DHT22;7777;52.254;9.618;2023-08-08T15:37:31;18.70;98.50
15355;DHT22;7777;52.254;9.618;2023-08-08T15:39:56;18.70;98.70
15355;DHT22;7777;52.254;9.618;2023-08-08T15:42:24;18.70;98.80
15355;DHT22;7777;52.254;9.618;2023-08-08T15:44:50;18.60;99.00
15355;DHT22;7777;52.254;9.618;2023-08-08T15:47:17;18.60;99.00
15355;DHT22;7777;52.254;9.618;2023-08-08T15:49:42;18.60;99.10
15355;DHT22;7777;52.254;9.618;2023-08-08T15:52:08;18.50;99.00
15355;DHT22;7777;52.254;9.618;2023-08-08T15:54:34;18.50;99.10
15355;DHT22;7777;52.254;9.618;2023-08-08T15:56:59;18.40;99.10
15355;DHT22;7777;52.254;9.618;2023-08-08T15:59:27;18.40;99.10